sensor_id;sensor_type;location;lat;lon;timestamp;P1;durP1;ratioP1;P2;durP2;ratioP2
33327;SDS011;19692;52.998;9.116;2022-12-18T00:02:16;41.20;;;24.70;;
33327;SDS011;19692;52.998;9.116;2022-12-18T00:04:41;45.73;;;25.90;;
33327;SDS011;19692;52.998;9.116;2022-12-18T00:07:07;38.70;;;23.03;;
33327;SDS011;19692;52.998;9.116;2022-12-18T00:09:33;39.67;;;23.80;;
33327;SDS011;19692;52.998;9.116;2022-12-18T00:11:58;35.27;;;21.47;;
33327;SDS011;19692;52.998;9.116;2022-12-18T00:14:24;39.73;;;22.50;;
33327;SDS011;19692;52.998;9.116;2022-12-18T00:16:50;34.70;;;21.57;;
33327;SDS011;19692;52.998;9.116;2022-12-18T00:19:16;33.53;;;21.20;;
33327;SDS011;19692;52.998;9.116;2022-12-18T00:21:42;36.97;;;22.23;;
33327;SDS011;19692;52.998;9.116;2022-12-18T00:24:08;36.23;;;21.27;;
33327;SDS011;19692;52.998;9.116;2022-12-18T00:26:35;34.47;;;22.73;;
33327;SDS011;19692;52.998;9.116;2022-12-18T00:29:08;36.17;;;21.43;;
33327;SDS011;19692;52.998;9.116;2022-12-18T00:31:36;36.00;;;21.43;;
33327;SDS011;19692;52.998;9.116;2022-12-18T00:34:02;37.63;;;21.93;;
33327;SDS011;19692;52.998;9.116;2022-12-18T00:36:30;41.10;;;21.90;;
33327;SDS011;19692;52.998;9.116;2022-12-18T00:38:58;37.20;;;21.23;;
33327;SDS011;19692;52.998;9.116;2022-12-18T00:41:25;34.63;;;20.23;;
33327;SDS011;19692;52.998;9.116;2022-12-18T00:44:11;35.57;;;20.47;;
33327;SDS011;19692;52.998;9.116;2022-12-18T00:46:38;33.17;;;20.13;;
33327;SDS011;19692;52.998;9.116;2022-12-18T00:49:04;38.23;;;21.50;;
33327;SDS011;19692;52.998;9.116;2022-12-18T00:51:30;33.57;;;20.50;;
33327;SDS011;19692;52.998;9.116;2022-12-18T00:53:55;34.23;;;20.50;;
33327;SDS011;19692;52.998;9.116;2022-12-18T00:56:21;34.33;;;21.90;;
33327;SDS011;19692;52.998;9.116;2022-12-18T00:58:47;32.47;;;20.40;;
33327;SDS011;19692;52.998;9.116;2022-12-18T01:01:12;34.60;;;19.63;;
33327;SDS011;19692;52.998;9.116;2022-12-18T01:03:38;31.13;;;20.10;;
33327;SDS011;19692;52.998;9.116;2022-12-18T01:06:08;35.00;;;21.83;;
33327;SDS011;19692;52.998;9.116;2022-12-18T01:08:35;35.57;;;22.37;;
33327;SDS011;19692;52.998;9.116;2022-12-18T01:11:06;37.50;;;22.33;;
33327;SDS011;19692;52.998;9.116;2022-12-18T01:13:33;40.00;;;22.90;;
33327;SDS011;19692;52.998;9.116;2022-12-18T01:15:59;39.77;;;22.50;;
33327;SDS011;19692;52.998;9.116;2022-12-18T01:18:25;38.37;;;22.93;;
33327;SDS011;19692;52.998;9.116;2022-12-18T01:20:50;38.53;;;21.40;;
33327;SDS011;19692;52.998;9.116;2022-12-18T01:23:16;34.20;;;20.10;;
33327;SDS011;19692;52.998;9.116;2022-12-18T01:25:42;32.00;;;19.03;;
33327;SDS011;19692;52.998;9.116;2022-12-18T01:28:07;30.80;;;19.10;;
33327;SDS011;19692;52.998;9.116;2022-12-18T01:30:33;34.00;;;19.57;;
33327;SDS011;19692;52.998;9.116;2022-12-18T01:32:58;34.07;;;19.93;;
33327;SDS011;19692;52.998;9.116;2022-12-18T01:35:24;33.60;;;21.40;;
33327;SDS011;19692;52.998;9.116;2022-12-18T01:37:53;35.53;;;22.40;;
33327;SDS011;19692;52.998;9.116;2022-12-18T01:40:19;36.33;;;19.63;;
33327;SDS011;19692;52.998;9.116;2022-12-18T01:42:49;35.80;;;20.70;;
33327;SDS011;19692;52.998;9.116;2022-12-18T01:50:17;33.10;;;18.00;;
33327;SDS011;19692;52.998;9.116;2022-12-18T01:52:52;28.17;;;16.83;;
33327;SDS011;19692;52.998;9.116;2022-12-18T01:55:23;33.17;;;18.13;;
33327;SDS011;19692;52.998;9.116;2022-12-18T01:57:55;31.77;;;18.10;;
33327;SDS011;19692;52.998;9.116;2022-12-18T02:00:24;32.67;;;18.63;;
33327;SDS011;19692;52.998;9.116;2022-12-18T02:02:51;31.67;;;17.70;;
33327;SDS011;19692;52.998;9.116;2022-12-18T02:05:36;26.30;;;17.00;;
33327;SDS011;19692;52.998;9.116;2022-12-18T02:10:53;29.93;;;17.63;;
33327;SDS011;19692;52.998;9.116;2022-12-18T02:16:11;30.27;;;17.93;;
33327;SDS011;19692;52.998;9.116;2022-12-18T02:18:41;32.27;;;17.60;;
33327;SDS011;19692;52.998;9.116;2022-12-18T02:21:27;27.67;;;16.37;;
33327;SDS011;19692;52.998;9.116;2022-12-18T02:24:29;31.13;;;17.77;;
33327;SDS011;19692;52.998;9.116;2022-12-18T02:27:06;29.70;;;16.57;;
33327;SDS011;19692;52.998;9.116;2022-12-18T02:29:48;30.73;;;16.43;;
33327;SDS011;19692;52.998;9.116;2022-12-18T02:32:18;23.67;;;15.03;;
33327;SDS011;19692;52.998;9.116;2022-12-18T02:34:49;29.17;;;16.07;;
33327;SDS011;19692;52.998;9.116;2022-12-18T02:37:18;26.77;;;15.87;;
33327;SDS011;19692;52.998;9.116;2022-12-18T02:39:45;27.73;;;16.50;;
33327;SDS011;19692;52.998;9.116;2022-12-18T02:42:13;28.53;;;16.10;;
33327;SDS011;19692;52.998;9.116;2022-12-18T02:44:47;29.37;;;17.07;;
33327;SDS011;19692;52.998;9.116;2022-12-18T02:47:14;26.70;;;16.13;;
33327;SDS011;19692;52.998;9.116;2022-12-18T02:56:05;24.73;;;16.00;;
33327;SDS011;19692;52.998;9.116;2022-12-18T02:59:02;23.23;;;15.40;;
33327;SDS011;19692;52.998;9.116;2022-12-18T03:01:35;27.77;;;15.03;;
33327;SDS011;19692;52.998;9.116;2022-12-18T03:04:09;27.63;;;16.30;;
33327;SDS011;19692;52.998;9.116;2022-12-18T03:06:43;25.93;;;15.17;;
33327;SDS011;19692;52.998;9.116;2022-12-18T03:09:14;27.43;;;15.90;;
33327;SDS011;19692;52.998;9.116;2022-12-18T03:11:47;24.33;;;15.30;;
33327;SDS011;19692;52.998;9.116;2022-12-18T03:14:37;23.47;;;14.57;;
33327;SDS011;19692;52.998;9.116;2022-12-18T03:17:05;26.53;;;15.67;;
33327;SDS011;19692;52.998;9.116;2022-12-18T03:19:35;27.03;;;15.20;;
33327;SDS011;19692;52.998;9.116;2022-12-18T03:22:04;27.90;;;15.60;;
33327;SDS011;19692;52.998;9.116;2022-12-18T03:24:33;27.83;;;15.50;;
33327;SDS011;19692;52.998;9.116;2022-12-18T03:27:02;26.97;;;15.00;;
33327;SDS011;19692;52.998;9.116;2022-12-18T03:29:52;26.43;;;15.77;;
33327;SDS011;19692;52.998;9.116;2022-12-18T03:32:38;28.33;;;15.77;;
33327;SDS011;19692;52.998;9.116;2022-12-18T03:35:14;27.17;;;16.37;;
33327;SDS011;19692;52.998;9.116;2022-12-18T03:37:45;23.27;;;15.50;;
33327;SDS011;19692;52.998;9.116;2022-12-18T03:40:11;28.87;;;15.40;;
33327;SDS011;19692;52.998;9.116;2022-12-18T03:45:23;24.17;;;14.70;;
33327;SDS011;19692;52.998;9.116;2022-12-18T03:51:00;26.93;;;15.03;;
33327;SDS011;19692;52.998;9.116;2022-12-18T03:56:22;28.03;;;15.00;;
33327;SDS011;19692;52.998;9.116;2022-12-18T03:58:52;24.40;;;14.67;;
33327;SDS011;19692;52.998;9.116;2022-12-18T04:01:20;24.33;;;14.27;;
33327;SDS011;19692;52.998;9.116;2022-12-18T04:03:48;27.23;;;15.50;;
33327;SDS011;19692;52.998;9.116;2022-12-18T04:06:15;24.00;;;15.83;;
33327;SDS011;19692;52.998;9.116;2022-12-18T04:08:42;23.30;;;14.10;;
33327;SDS011;19692;52.998;9.116;2022-12-18T04:11:08;24.23;;;14.60;;
33327;SDS011;19692;52.998;9.116;2022-12-18T04:13:35;21.77;;;13.87;;
33327;SDS011;19692;52.998;9.116;2022-12-18T04:16:02;20.90;;;13.63;;
33327;SDS011;19692;52.998;9.116;2022-12-18T04:18:28;22.40;;;14.70;;
33327;SDS011;19692;52.998;9.116;2022-12-18T04:20:54;27.10;;;15.67;;
33327;SDS011;19692;52.998;9.116;2022-12-18T04:23:23;20.83;;;13.10;;
33327;SDS011;19692;52.998;9.116;2022-12-18T04:25:48;25.80;;;14.43;;
33327;SDS011;19692;52.998;9.116;2022-12-18T04:28:14;27.33;;;14.23;;
33327;SDS011;19692;52.998;9.116;2022-12-18T04:30:40;26.10;;;13.87;;
33327;SDS011;19692;52.998;9.116;2022-12-18T04:33:12;25.03;;;14.27;;
33327;SDS011;19692;52.998;9.116;2022-12-18T04:35:39;29.20;;;15.20;;
33327;SDS011;19692;52.998;9.116;2022-12-18T04:38:05;26.20;;;14.80;;
33327;SDS011;19692;52.998;9.116;2022-12-18T04:40:33;19.97;;;12.83;;
33327;SDS011;19692;52.998;9.116;2022-12-18T04:42:59;25.47;;;13.93;;
33327;SDS011;19692;52.998;9.116;2022-12-18T04:45:25;22.70;;;12.77;;
33327;SDS011;19692;52.998;9.116;2022-12-18T04:47:51;21.53;;;13.77;;
33327;SDS011;19692;52.998;9.116;2022-12-18T04:50:16;22.50;;;14.30;;
33327;SDS011;19692;52.998;9.116;2022-12-18T04:52:42;22.97;;;14.10;;
33327;SDS011;19692;52.998;9.116;2022-12-18T04:55:08;25.30;;;14.17;;
33327;SDS011;19692;52.998;9.116;2022-12-18T04:57:33;21.40;;;13.63;;
33327;SDS011;19692;52.998;9.116;2022-12-18T04:59:59;23.73;;;12.97;;
33327;SDS011;19692;52.998;9.116;2022-12-18T05:02:25;21.80;;;15.10;;
33327;SDS011;19692;52.998;9.116;2022-12-18T05:04:50;28.37;;;14.07;;
33327;SDS011;19692;52.998;9.116;2022-12-18T05:07:16;26.37;;;14.70;;
33327;SDS011;19692;52.998;9.116;2022-12-18T05:09:41;29.97;;;15.90;;
33327;SDS011;19692;52.998;9.116;2022-12-18T05:12:07;29.27;;;16.77;;
33327;SDS011;19692;52.998;9.116;2022-12-18T05:14:33;25.33;;;15.07;;
33327;SDS011;19692;52.998;9.116;2022-12-18T05:16:58;23.00;;;14.40;;
33327;SDS011;19692;52.998;9.116;2022-12-18T05:19:24;26.27;;;15.83;;
33327;SDS011;19692;52.998;9.116;2022-12-18T05:21:49;27.90;;;16.37;;
33327;SDS011;19692;52.998;9.116;2022-12-18T05:24:15;24.20;;;15.00;;
33327;SDS011;19692;52.998;9.116;2022-12-18T05:26:41;26.50;;;15.77;;
33327;SDS011;19692;52.998;9.116;2022-12-18T05:29:06;25.53;;;14.73;;
33327;SDS011;19692;52.998;9.116;2022-12-18T05:31:32;26.47;;;16.67;;
33327;SDS011;19692;52.998;9.116;2022-12-18T05:33:57;29.67;;;15.97;;
33327;SDS011;19692;52.998;9.116;2022-12-18T05:36:23;22.87;;;13.77;;
33327;SDS011;19692;52.998;9.116;2022-12-18T05:38:49;24.00;;;13.77;;
33327;SDS011;19692;52.998;9.116;2022-12-18T05:41:15;21.03;;;12.33;;
33327;SDS011;19692;52.998;9.116;2022-12-18T05:43:41;20.97;;;13.53;;
33327;SDS011;19692;52.998;9.116;2022-12-18T05:46:07;20.37;;;12.97;;
33327;SDS011;19692;52.998;9.116;2022-12-18T05:48:37;21.20;;;12.70;;
33327;SDS011;19692;52.998;9.116;2022-12-18T05:51:07;21.00;;;12.63;;
33327;SDS011;19692;52.998;9.116;2022-12-18T05:53:35;21.10;;;13.27;;
33327;SDS011;19692;52.998;9.116;2022-12-18T05:56:02;22.07;;;13.00;;
33327;SDS011;19692;52.998;9.116;2022-12-18T05:58:32;20.53;;;12.70;;
33327;SDS011;19692;52.998;9.116;2022-12-18T06:00:58;22.60;;;13.27;;
33327;SDS011;19692;52.998;9.116;2022-12-18T06:03:39;20.40;;;12.57;;
33327;SDS011;19692;52.998;9.116;2022-12-18T06:06:39;22.80;;;13.17;;
33327;SDS011;19692;52.998;9.116;2022-12-18T06:08:57;20.53;;;13.03;;
33327;SDS011;19692;52.998;9.116;2022-12-18T06:11:24;21.77;;;13.30;;
33327;SDS011;19692;52.998;9.116;2022-12-18T06:13:51;24.90;;;13.30;;
33327;SDS011;19692;52.998;9.116;2022-12-18T06:16:18;19.13;;;12.43;;
33327;SDS011;19692;52.998;9.116;2022-12-18T06:18:44;20.33;;;12.07;;
33327;SDS011;19692;52.998;9.116;2022-12-18T06:21:09;20.97;;;13.63;;
33327;SDS011;19692;52.998;9.116;2022-12-18T06:23:35;21.27;;;12.10;;
33327;SDS011;19692;52.998;9.116;2022-12-18T06:26:05;22.73;;;12.23;;
33327;SDS011;19692;52.998;9.116;2022-12-18T06:28:35;21.03;;;12.43;;
33327;SDS011;19692;52.998;9.116;2022-12-18T06:31:02;26.93;;;13.43;;
33327;SDS011;19692;52.998;9.116;2022-12-18T06:33:28;22.97;;;13.00;;
33327;SDS011;19692;52.998;9.116;2022-12-18T06:35:59;20.53;;;12.67;;
33327;SDS011;19692;52.998;9.116;2022-12-18T06:38:27;20.27;;;11.90;;
33327;SDS011;19692;52.998;9.116;2022-12-18T06:40:52;24.10;;;13.37;;
33327;SDS011;19692;52.998;9.116;2022-12-18T06:43:18;19.37;;;12.90;;
33327;SDS011;19692;52.998;9.116;2022-12-18T06:45:45;20.83;;;12.87;;
33327;SDS011;19692;52.998;9.116;2022-12-18T06:48:14;20.53;;;12.27;;
33327;SDS011;19692;52.998;9.116;2022-12-18T06:50:41;22.87;;;12.63;;
33327;SDS011;19692;52.998;9.116;2022-12-18T06:53:07;21.37;;;13.87;;
33327;SDS011;19692;52.998;9.116;2022-12-18T06:55:33;21.27;;;13.20;;
33327;SDS011;19692;52.998;9.116;2022-12-18T06:57:58;20.70;;;11.93;;
33327;SDS011;19692;52.998;9.116;2022-12-18T07:00:24;19.40;;;12.10;;
33327;SDS011;19692;52.998;9.116;2022-12-18T07:02:49;17.77;;;11.73;;
33327;SDS011;19692;52.998;9.116;2022-12-18T07:05:15;24.00;;;13.20;;
33327;SDS011;19692;52.998;9.116;2022-12-18T07:07:41;20.60;;;12.60;;
33327;SDS011;19692;52.998;9.116;2022-12-18T07:10:06;24.63;;;13.27;;
33327;SDS011;19692;52.998;9.116;2022-12-18T07:12:32;19.13;;;12.57;;
33327;SDS011;19692;52.998;9.116;2022-12-18T07:14:58;20.80;;;13.13;;
33327;SDS011;19692;52.998;9.116;2022-12-18T07:17:23;20.77;;;12.63;;
33327;SDS011;19692;52.998;9.116;2022-12-18T07:19:49;21.60;;;13.00;;
33327;SDS011;19692;52.998;9.116;2022-12-18T07:22:15;20.60;;;11.97;;
33327;SDS011;19692;52.998;9.116;2022-12-18T07:24:40;20.83;;;13.43;;
33327;SDS011;19692;52.998;9.116;2022-12-18T07:27:06;27.30;;;14.07;;
33327;SDS011;19692;52.998;9.116;2022-12-18T07:29:31;22.73;;;13.93;;
33327;SDS011;19692;52.998;9.116;2022-12-18T07:31:57;22.63;;;13.80;;
33327;SDS011;19692;52.998;9.116;2022-12-18T07:34:22;19.43;;;12.73;;
33327;SDS011;19692;52.998;9.116;2022-12-18T07:36:48;25.10;;;14.07;;
33327;SDS011;19692;52.998;9.116;2022-12-18T07:39:14;24.20;;;14.10;;
33327;SDS011;19692;52.998;9.116;2022-12-18T07:41:39;25.30;;;14.23;;
33327;SDS011;19692;52.998;9.116;2022-12-18T07:44:11;20.20;;;13.13;;
33327;SDS011;19692;52.998;9.116;2022-12-18T07:46:37;19.67;;;14.00;;
33327;SDS011;19692;52.998;9.116;2022-12-18T07:49:03;22.83;;;13.53;;
33327;SDS011;19692;52.998;9.116;2022-12-18T07:51:28;20.50;;;13.03;;
33327;SDS011;19692;52.998;9.116;2022-12-18T07:53:54;20.73;;;13.60;;
33327;SDS011;19692;52.998;9.116;2022-12-18T07:56:21;21.60;;;12.77;;
33327;SDS011;19692;52.998;9.116;2022-12-18T07:58:47;21.27;;;12.60;;
33327;SDS011;19692;52.998;9.116;2022-12-18T08:01:13;20.47;;;12.70;;
33327;SDS011;19692;52.998;9.116;2022-12-18T08:03:39;21.73;;;13.33;;
33327;SDS011;19692;52.998;9.116;2022-12-18T08:06:06;22.20;;;13.37;;
33327;SDS011;19692;52.998;9.116;2022-12-18T08:08:34;22.00;;;12.37;;
33327;SDS011;19692;52.998;9.116;2022-12-18T08:11:00;21.00;;;12.87;;
33327;SDS011;19692;52.998;9.116;2022-12-18T08:13:26;19.13;;;13.17;;
33327;SDS011;19692;52.998;9.116;2022-12-18T08:16:10;16.83;;;11.27;;
33327;SDS011;19692;52.998;9.116;2022-12-18T08:18:36;21.97;;;12.90;;
33327;SDS011;19692;52.998;9.116;2022-12-18T08:23:41;21.25;;;12.60;;
33327;SDS011;19692;52.998;9.116;2022-12-18T08:26:07;18.90;;;12.67;;
33327;SDS011;19692;52.998;9.116;2022-12-18T08:28:33;21.30;;;12.87;;
33327;SDS011;19692;52.998;9.116;2022-12-18T08:30:59;21.87;;;12.93;;
33327;SDS011;19692;52.998;9.116;2022-12-18T08:33:25;22.33;;;13.20;;
33327;SDS011;19692;52.998;9.116;2022-12-18T08:35:51;23.50;;;13.80;;
33327;SDS011;19692;52.998;9.116;2022-12-18T08:38:17;19.40;;;13.23;;
33327;SDS011;19692;52.998;9.116;2022-12-18T08:40:43;22.17;;;13.60;;
33327;SDS011;19692;52.998;9.116;2022-12-18T08:43:11;23.43;;;15.07;;
33327;SDS011;19692;52.998;9.116;2022-12-18T08:45:56;21.73;;;14.77;;
33327;SDS011;19692;52.998;9.116;2022-12-18T08:48:22;23.67;;;15.30;;
33327;SDS011;19692;52.998;9.116;2022-12-18T08:50:54;23.20;;;15.07;;
33327;SDS011;19692;52.998;9.116;2022-12-18T08:53:20;24.07;;;15.20;;
33327;SDS011;19692;52.998;9.116;2022-12-18T08:55:49;20.27;;;13.77;;
33327;SDS011;19692;52.998;9.116;2022-12-18T08:58:15;27.83;;;14.80;;
33327;SDS011;19692;52.998;9.116;2022-12-18T09:00:40;20.40;;;13.97;;
33327;SDS011;19692;52.998;9.116;2022-12-18T09:03:10;18.67;;;11.60;;
33327;SDS011;19692;52.998;9.116;2022-12-18T09:05:40;20.77;;;12.80;;
33327;SDS011;19692;52.998;9.116;2022-12-18T09:08:06;22.13;;;13.50;;
33327;SDS011;19692;52.998;9.116;2022-12-18T09:10:32;22.83;;;12.53;;
33327;SDS011;19692;52.998;9.116;2022-12-18T09:12:58;19.57;;;12.83;;
33327;SDS011;19692;52.998;9.116;2022-12-18T09:15:24;22.00;;;11.83;;
33327;SDS011;19692;52.998;9.116;2022-12-18T09:17:49;20.57;;;12.27;;
33327;SDS011;19692;52.998;9.116;2022-12-18T09:20:18;19.83;;;12.07;;
33327;SDS011;19692;52.998;9.116;2022-12-18T09:22:44;20.27;;;12.87;;
33327;SDS011;19692;52.998;9.116;2022-12-18T09:25:09;19.30;;;12.60;;
33327;SDS011;19692;52.998;9.116;2022-12-18T09:27:35;20.03;;;12.83;;
33327;SDS011;19692;52.998;9.116;2022-12-18T09:30:01;19.33;;;11.87;;
33327;SDS011;19692;52.998;9.116;2022-12-18T09:32:27;19.20;;;13.03;;
33327;SDS011;19692;52.998;9.116;2022-12-18T09:34:53;17.60;;;12.77;;
33327;SDS011;19692;52.998;9.116;2022-12-18T09:37:18;17.33;;;12.60;;
33327;SDS011;19692;52.998;9.116;2022-12-18T09:39:44;20.50;;;12.17;;
33327;SDS011;19692;52.998;9.116;2022-12-18T09:42:17;19.00;;;11.93;;
33327;SDS011;19692;52.998;9.116;2022-12-18T09:44:49;19.13;;;11.40;;
33327;SDS011;19692;52.998;9.116;2022-12-18T09:49:58;17.77;;;11.20;;
33327;SDS011;19692;52.998;9.116;2022-12-18T09:52:40;18.07;;;10.60;;
33327;SDS011;19692;52.998;9.116;2022-12-18T10:00:46;17.83;;;10.30;;
33327;SDS011;19692;52.998;9.116;2022-12-18T10:03:13;13.83;;;10.57;;
33327;SDS011;19692;52.998;9.116;2022-12-18T10:05:46;17.53;;;11.47;;
33327;SDS011;19692;52.998;9.116;2022-12-18T10:08:22;14.53;;;9.90;;
33327;SDS011;19692;52.998;9.116;2022-12-18T10:10:53;17.73;;;10.83;;
33327;SDS011;19692;52.998;9.116;2022-12-18T10:13:39;18.73;;;10.00;;
33327;SDS011;19692;52.998;9.116;2022-12-18T10:16:13;17.03;;;10.80;;
33327;SDS011;19692;52.998;9.116;2022-12-18T10:27:48;17.40;;;10.80;;
33327;SDS011;19692;52.998;9.116;2022-12-18T10:30:20;19.27;;;13.03;;
33327;SDS011;19692;52.998;9.116;2022-12-18T10:32:46;15.37;;;10.63;;
33327;SDS011;19692;52.998;9.116;2022-12-18T10:35:22;17.13;;;10.80;;
33327;SDS011;19692;52.998;9.116;2022-12-18T10:40:50;19.93;;;11.63;;
33327;SDS011;19692;52.998;9.116;2022-12-18T10:43:26;20.40;;;12.07;;
33327;SDS011;19692;52.998;9.116;2022-12-18T10:45:58;15.93;;;10.83;;
33327;SDS011;19692;52.998;9.116;2022-12-18T10:48:39;16.60;;;11.60;;
33327;SDS011;19692;52.998;9.116;2022-12-18T10:54:02;18.17;;;12.83;;
33327;SDS011;19692;52.998;9.116;2022-12-18T10:56:31;17.67;;;12.20;;
33327;SDS011;19692;52.998;9.116;2022-12-18T10:59:03;15.80;;;11.27;;
33327;SDS011;19692;52.998;9.116;2022-12-18T11:04:18;14.73;;;11.47;;
33327;SDS011;19692;52.998;9.116;2022-12-18T11:06:58;15.63;;;12.00;;
33327;SDS011;19692;52.998;9.116;2022-12-18T11:12:04;14.10;;;9.90;;
33327;SDS011;19692;52.998;9.116;2022-12-18T11:14:47;15.93;;;10.00;;
33327;SDS011;19692;52.998;9.116;2022-12-18T11:17:20;13.17;;;10.43;;
33327;SDS011;19692;52.998;9.116;2022-12-18T11:19:59;30.97;;;16.87;;
33327;SDS011;19692;52.998;9.116;2022-12-18T11:22:27;21.53;;;13.23;;
33327;SDS011;19692;52.998;9.116;2022-12-18T11:24:55;14.40;;;10.57;;
33327;SDS011;19692;52.998;9.116;2022-12-18T11:27:47;14.73;;;9.87;;
33327;SDS011;19692;52.998;9.116;2022-12-18T11:30:34;11.87;;;9.17;;
33327;SDS011;19692;52.998;9.116;2022-12-18T11:38:12;13.87;;;8.80;;
33327;SDS011;19692;52.998;9.116;2022-12-18T11:41:00;13.23;;;9.50;;
33327;SDS011;19692;52.998;9.116;2022-12-18T11:43:38;14.53;;;8.60;;
33327;SDS011;19692;52.998;9.116;2022-12-18T11:46:12;12.60;;;8.47;;
33327;SDS011;19692;52.998;9.116;2022-12-18T11:48:44;15.60;;;10.80;;
33327;SDS011;19692;52.998;9.116;2022-12-18T11:51:36;11.33;;;8.33;;
33327;SDS011;19692;52.998;9.116;2022-12-18T11:54:10;13.40;;;9.47;;
33327;SDS011;19692;52.998;9.116;2022-12-18T11:56:49;14.77;;;10.73;;
33327;SDS011;19692;52.998;9.116;2022-12-18T12:21:34;14.47;;;9.83;;
33327;SDS011;19692;52.998;9.116;2022-12-18T12:26:53;13.33;;;9.93;;
33327;SDS011;19692;52.998;9.116;2022-12-18T12:29:27;13.93;;;11.00;;
33327;SDS011;19692;52.998;9.116;2022-12-18T12:35:14;14.20;;;9.53;;
33327;SDS011;19692;52.998;9.116;2022-12-18T12:40:34;14.40;;;9.73;;
33327;SDS011;19692;52.998;9.116;2022-12-18T12:43:07;16.07;;;9.90;;
33327;SDS011;19692;52.998;9.116;2022-12-18T12:46:04;14.53;;;9.63;;
33327;SDS011;19692;52.998;9.116;2022-12-18T12:48:36;12.87;;;9.60;;
33327;SDS011;19692;52.998;9.116;2022-12-18T12:51:06;14.80;;;9.53;;
33327;SDS011;19692;52.998;9.116;2022-12-18T12:53:48;12.33;;;9.67;;
33327;SDS011;19692;52.998;9.116;2022-12-18T12:56:18;12.97;;;9.73;;
33327;SDS011;19692;52.998;9.116;2022-12-18T13:12:57;13.83;;;9.40;;
33327;SDS011;19692;52.998;9.116;2022-12-18T13:15:44;12.10;;;9.10;;
33327;SDS011;19692;52.998;9.116;2022-12-18T13:18:19;13.00;;;9.60;;
33327;SDS011;19692;52.998;9.116;2022-12-18T13:25:55;15.77;;;10.40;;
33327;SDS011;19692;52.998;9.116;2022-12-18T13:28:23;13.77;;;9.80;;
33327;SDS011;19692;52.998;9.116;2022-12-18T13:36:46;15.07;;;9.67;;
33327;SDS011;19692;52.998;9.116;2022-12-18T13:41:46;16.93;;;11.67;;
33327;SDS011;19692;52.998;9.116;2022-12-18T13:44:36;13.53;;;10.43;;
33327;SDS011;19692;52.998;9.116;2022-12-18T13:47:05;13.17;;;9.53;;
33327;SDS011;19692;52.998;9.116;2022-12-18T13:49:56;14.53;;;11.00;;
33327;SDS011;19692;52.998;9.116;2022-12-18T13:52:33;14.50;;;9.47;;
33327;SDS011;19692;52.998;9.116;2022-12-18T13:55:04;12.53;;;9.57;;
33327;SDS011;19692;52.998;9.116;2022-12-18T13:57:39;14.43;;;9.50;;
33327;SDS011;19692;52.998;9.116;2022-12-18T14:02:51;14.37;;;9.23;;
33327;SDS011;19692;52.998;9.116;2022-12-18T14:05:27;13.57;;;9.90;;
33327;SDS011;19692;52.998;9.116;2022-12-18T14:08:00;14.03;;;9.80;;
33327;SDS011;19692;52.998;9.116;2022-12-18T14:10:41;15.00;;;9.77;;
33327;SDS011;19692;52.998;9.116;2022-12-18T14:13:09;15.60;;;9.50;;
33327;SDS011;19692;52.998;9.116;2022-12-18T14:15:43;17.03;;;10.33;;
33327;SDS011;19692;52.998;9.116;2022-12-18T14:20:57;14.63;;;9.03;;
33327;SDS011;19692;52.998;9.116;2022-12-18T14:26:02;14.70;;;8.53;;
33327;SDS011;19692;52.998;9.116;2022-12-18T14:29:01;12.20;;;7.73;;
33327;SDS011;19692;52.998;9.116;2022-12-18T14:32:15;13.93;;;7.97;;
33327;SDS011;19692;52.998;9.116;2022-12-18T14:34:46;14.33;;;8.80;;
33327;SDS011;19692;52.998;9.116;2022-12-18T14:37:15;13.53;;;8.60;;
33327;SDS011;19692;52.998;9.116;2022-12-18T14:42:37;16.97;;;10.27;;
33327;SDS011;19692;52.998;9.116;2022-12-18T14:48:01;15.33;;;9.00;;
33327;SDS011;19692;52.998;9.116;2022-12-18T14:50:40;13.40;;;9.37;;
33327;SDS011;19692;52.998;9.116;2022-12-18T14:53:16;11.23;;;7.73;;
33327;SDS011;19692;52.998;9.116;2022-12-18T14:55:48;13.57;;;9.60;;
33327;SDS011;19692;52.998;9.116;2022-12-18T14:58:15;12.43;;;8.10;;
33327;SDS011;19692;52.998;9.116;2022-12-18T15:00:42;13.33;;;9.10;;
33327;SDS011;19692;52.998;9.116;2022-12-18T15:03:08;13.10;;;8.60;;
33327;SDS011;19692;52.998;9.116;2022-12-18T15:05:34;18.27;;;9.23;;
33327;SDS011;19692;52.998;9.116;2022-12-18T15:08:01;9.87;;;7.47;;
33327;SDS011;19692;52.998;9.116;2022-12-18T15:10:28;16.50;;;9.23;;
33327;SDS011;19692;52.998;9.116;2022-12-18T15:18:03;14.07;;;9.10;;
33327;SDS011;19692;52.998;9.116;2022-12-18T15:20:55;13.67;;;8.30;;
33327;SDS011;19692;52.998;9.116;2022-12-18T15:26:08;15.00;;;8.93;;
33327;SDS011;19692;52.998;9.116;2022-12-18T15:28:48;14.47;;;9.07;;
33327;SDS011;19692;52.998;9.116;2022-12-18T15:31:29;11.43;;;8.00;;
33327;SDS011;19692;52.998;9.116;2022-12-18T15:34:13;12.40;;;8.03;;
33327;SDS011;19692;52.998;9.116;2022-12-18T15:36:45;12.13;;;7.83;;
33327;SDS011;19692;52.998;9.116;2022-12-18T15:39:12;11.83;;;8.03;;
33327;SDS011;19692;52.998;9.116;2022-12-18T15:41:38;13.93;;;8.27;;
33327;SDS011;19692;52.998;9.116;2022-12-18T15:44:21;12.07;;;8.00;;
33327;SDS011;19692;52.998;9.116;2022-12-18T15:46:48;10.93;;;7.57;;
33327;SDS011;19692;52.998;9.116;2022-12-18T15:49:14;12.43;;;7.57;;
33327;SDS011;19692;52.998;9.116;2022-12-18T15:51:40;11.87;;;7.37;;
33327;SDS011;19692;52.998;9.116;2022-12-18T15:54:06;14.03;;;7.73;;
33327;SDS011;19692;52.998;9.116;2022-12-18T15:56:36;11.97;;;7.80;;
33327;SDS011;19692;52.998;9.116;2022-12-18T15:59:20;11.67;;;7.43;;
33327;SDS011;19692;52.998;9.116;2022-12-18T16:01:48;11.83;;;8.20;;
33327;SDS011;19692;52.998;9.116;2022-12-18T16:04:16;13.40;;;8.37;;
33327;SDS011;19692;52.998;9.116;2022-12-18T16:06:45;12.43;;;8.10;;
33327;SDS011;19692;52.998;9.116;2022-12-18T16:09:11;12.47;;;7.87;;
33327;SDS011;19692;52.998;9.116;2022-12-18T16:11:37;13.67;;;8.73;;
33327;SDS011;19692;52.998;9.116;2022-12-18T16:14:21;13.20;;;8.83;;
33327;SDS011;19692;52.998;9.116;2022-12-18T16:16:54;11.33;;;7.67;;
33327;SDS011;19692;52.998;9.116;2022-12-18T16:19:21;13.73;;;8.37;;
33327;SDS011;19692;52.998;9.116;2022-12-18T16:21:47;12.23;;;8.23;;
33327;SDS011;19692;52.998;9.116;2022-12-18T16:24:19;14.53;;;9.10;;
33327;SDS011;19692;52.998;9.116;2022-12-18T16:26:49;14.60;;;8.40;;
33327;SDS011;19692;52.998;9.116;2022-12-18T16:29:16;16.07;;;9.87;;
33327;SDS011;19692;52.998;9.116;2022-12-18T16:31:42;12.83;;;8.53;;
33327;SDS011;19692;52.998;9.116;2022-12-18T16:34:12;12.73;;;8.67;;
33327;SDS011;19692;52.998;9.116;2022-12-18T16:36:39;13.47;;;9.80;;
33327;SDS011;19692;52.998;9.116;2022-12-18T16:39:05;14.33;;;9.60;;
33327;SDS011;19692;52.998;9.116;2022-12-18T16:41:30;13.70;;;10.13;;
33327;SDS011;19692;52.998;9.116;2022-12-18T16:43:57;14.50;;;10.00;;
33327;SDS011;19692;52.998;9.116;2022-12-18T16:46:23;17.43;;;11.50;;
33327;SDS011;19692;52.998;9.116;2022-12-18T16:48:48;15.20;;;9.93;;
33327;SDS011;19692;52.998;9.116;2022-12-18T16:51:14;18.80;;;10.60;;
33327;SDS011;19692;52.998;9.116;2022-12-18T16:53:40;17.13;;;10.63;;
33327;SDS011;19692;52.998;9.116;2022-12-18T16:56:05;15.93;;;9.33;;
33327;SDS011;19692;52.998;9.116;2022-12-18T16:58:31;15.33;;;10.00;;
33327;SDS011;19692;52.998;9.116;2022-12-18T17:00:57;12.93;;;9.23;;
33327;SDS011;19692;52.998;9.116;2022-12-18T17:03:23;14.73;;;9.40;;
33327;SDS011;19692;52.998;9.116;2022-12-18T17:05:48;16.27;;;9.17;;